Time;durP1;ratioP1;P1;durP2;ratioP2;P2;SDS_P1;SDS_P2;PMS_P1;PMS_P2;Temp;Humidity;BMP_temperature;BMP_pressure;BME280_temperature;BME280_humidity;BME280_pressure;Samples;Min_cycle;Max_cycle;Signal;HPM_P1;HPM_P2
2023/10/12 00:04:50;;;;;;;15.77;6.33;;;17.50;99.90;;;;;;4726421;30;20308;-83
2023/10/12 00:12:07;;;;;;;12.90;6.70;;;17.30;99.90;;;;;;4782082;30;20558;-80
2023/10/12 00:15:45;;;;;;;14.27;6.70;;;17.30;99.90;;;;;;4782113;29;20200;-83
2023/10/12 00:18:24;;;;;;;15.73;6.60;;;17.50;99.90;;;;;;4783422;29;20269;-80
2023/10/12 00:21:25;;;;;;;15.00;6.90;;;17.30;99.90;;;;;;4782697;30;20242;-82
2023/10/12 00:28:01;;;;;;;13.60;6.80;;;17.30;99.90;;;;;;4798676;29;20199;-82
2023/10/12 00:35:07;;;;;;;16.10;6.80;;;17.50;99.90;;;;;;4802256;29;20250;-80
2023/10/12 00:38:23;;;;;;;13.90;6.50;;;17.50;99.90;;;;;;4848904;29;20316;-82
2023/10/12 00:45:19;;;;;;;13.57;6.70;;;17.40;99.90;;;;;;4834433;29;20239;-82
2023/10/12 00:52:45;;;;;;;;;;;;;;;;;;;;;
2023/10/12 00:56:02;;;;;;;17.47;7.63;;;17.20;99.90;;;;;;4799939;29;20212;-82
2023/10/12 00:58:55;;;;;;;14.47;7.50;;;17.20;99.90;;;;;;4790734;29;20719;-81
2023/10/12 01:01:44;;;;;;;17.43;6.80;;;17.10;99.90;;;;;;4789007;29;20223;-81
2023/10/12 01:08:36;;;;;;;17.80;7.47;;;17.10;99.90;;;;;;4726207;30;20209;-82
2023/10/12 01:12:12;;;;;;;16.67;7.10;;;17.10;99.90;;;;;;4761382;30;20224;-81
2023/10/12 01:15:16;;;;;;;14.90;6.97;;;17.20;99.90;;;;;;4713908;30;20293;-81
2023/10/12 01:18:28;;;;;;;14.87;6.90;;;17.00;99.90;;;;;;4715046;30;20241;-81
2023/10/12 01:21:47;;;;;;;15.90;6.90;;;17.00;99.90;;;;;;4672047;30;20753;-83
2023/10/12 01:29:12;;;;;;;14.73;7.00;;;16.90;99.90;;;;;;4689514;30;20278;-81
2023/10/12 01:35:25;;;;;;;;;;;;;;;;;;;;;
2023/10/12 01:38:36;;;;;;;13.83;6.27;;;17.00;99.90;;;;;;4745408;30;20219;-83
2023/10/12 01:41:52;;;;;;;12.10;6.23;;;17.20;99.90;;;;;;4762050;30;20716;-82
2023/10/12 01:44:58;;;;;;;11.87;6.10;;;17.00;99.90;;;;;;4770746;29;20223;-83
2023/10/12 01:48:22;;;;;;;15.87;6.40;;;17.10;99.90;;;;;;4719100;30;20710;-83
2023/10/12 01:51:57;;;;;;;17.07;6.97;;;17.20;99.90;;;;;;4711621;29;20741;-81
2023/10/12 01:54:45;;;;;;;10.93;5.90;;;17.20;99.90;;;;;;4814793;29;20221;-82
2023/10/12 02:06:39;;;;;;;14.87;5.90;;;17.10;99.90;;;;;;4767675;30;20220;-82
2023/10/12 02:10:01;;;;;;;15.10;6.23;;;17.20;99.90;;;;;;4767421;30;20280;-79
2023/10/12 02:13:32;;;;;;;12.07;6.23;;;17.20;99.90;;;;;;4767522;30;20236;-81
2023/10/12 02:16:53;;;;;;;12.57;6.27;;;17.30;99.90;;;;;;4753012;30;20215;-81
2023/10/12 02:19:49;;;;;;;12.40;6.20;;;17.30;99.90;;;;;;4750973;30;20188;-81
2023/10/12 02:27:58;;;;;;;12.83;5.83;;;17.10;99.90;;;;;;4951554;23;20335;-79
2023/10/12 02:30:58;;;;;;;15.07;6.27;;;17.20;99.90;;;;;;4878273;29;20300;-82
2023/10/12 02:33:51;;;;;;;13.33;6.40;;;17.10;99.90;;;;;;4892162;29;20239;-82
2023/10/12 02:36:32;;;;;;;13.00;6.07;;;17.20;99.90;;;;;;4880165;29;20694;-81
2023/10/12 02:39:54;;;;;;;12.77;5.70;;;17.00;99.90;;;;;;4848084;29;20211;-81
2023/10/12 02:42:42;;;;;;;14.27;5.80;;;17.30;99.90;;;;;;4857895;29;20299;-82
2023/10/12 02:48:59;;;;;;;12.97;5.50;;;17.40;99.90;;;;;;4889612;29;20207;-84
2023/10/12 02:52:14;;;;;;;15.23;6.53;;;17.30;99.90;;;;;;4887134;29;20227;-82
2023/10/12 02:55:59;;;;;;;14.27;5.93;;;17.30;99.90;;;;;;4882073;29;20203;-82
2023/10/12 02:58:50;;;;;;;15.70;6.77;;;17.40;99.90;;;;;;4853894;29;20228;-81
2023/10/12 03:02:18;;;;;;;13.27;6.20;;;17.30;99.90;;;;;;4875832;29;20240;-81
2023/10/12 03:05:32;;;;;;;12.13;6.20;;;17.30;99.90;;;;;;4891277;29;20290;-82
2023/10/12 03:09:55;;;;;;;13.97;6.00;;;17.20;99.90;;;;;;4860223;29;20205;-82
2023/10/12 03:16:47;;;;;;;16.70;6.40;;;17.30;99.90;;;;;;4885024;29;20208;-81
2023/10/12 03:19:27;;;;;;;13.47;5.70;;;17.00;99.90;;;;;;4874579;29;20684;-79
2023/10/12 03:25:34;;;;;;;13.77;5.53;;;17.20;99.90;;;;;;4815464;29;20701;-79
2023/10/12 03:28:57;;;;;;;13.63;5.53;;;17.20;99.90;;;;;;4801806;29;20250;-80
2023/10/12 03:36:12;;;;;;;;;;;;;;;;;;;;;
2023/10/12 03:51:49;;;;;;;14.03;6.07;;;17.10;99.90;;;;;;4859026;29;20232;-81
2023/10/12 03:54:55;;;;;;;13.53;6.20;;;17.20;99.90;;;;;;4871870;29;20229;-79
2023/10/12 04:00:24;;;;;;;12.30;6.03;;;17.20;99.90;;;;;;4817001;29;20214;-80
2023/10/12 04:17:21;;;;;;;11.97;5.60;;;17.20;99.90;;;;;;4727264;30;20225;-81
2023/10/12 04:20:51;;;;;;;11.17;5.60;;;17.30;99.90;;;;;;4693394;30;20669;-79
2023/10/12 04:24:27;;;;;;;12.00;5.90;;;17.30;99.90;;;;;;4724576;30;20634;-81
2023/10/12 04:42:08;;;;;;;15.33;6.20;;;17.10;99.90;;;;;;4760939;30;20208;-81
2023/10/12 04:48:18;;;;;;;10.73;5.73;;;17.30;99.90;;;;;;4728187;30;20203;-82
2023/10/12 04:51:21;;;;;;;15.50;5.83;;;17.20;99.90;;;;;;4722435;30;20276;-81
2023/10/12 04:54:16;;;;;;;11.60;5.73;;;17.20;99.90;;;;;;4726920;30;20214;-83
2023/10/12 05:00:47;;;;;;;14.80;6.00;;;17.50;99.90;;;;;;4747545;30;20206;-82
2023/10/12 05:03:23;;;;;;;13.77;6.07;;;17.20;99.90;;;;;;4745144;30;20221;-80
2023/10/12 05:06:13;;;;;;;13.03;6.07;;;17.20;99.90;;;;;;4728176;30;20686;-79
2023/10/12 05:10:03;;;;;;;12.90;5.70;;;17.20;99.90;;;;;;4736181;30;20305;-79
2023/10/12 05:12:50;;;;;;;15.83;5.87;;;17.20;99.90;;;;;;4792989;29;20279;-79
2023/10/12 05:18:27;;;;;;;15.17;6.07;;;17.40;99.90;;;;;;4800303;29;20310;-80
2023/10/12 05:21:08;;;;;;;13.83;5.60;;;17.50;99.90;;;;;;4802809;29;20278;-81
2023/10/12 05:24:32;;;;;;;13.03;5.60;;;17.40;99.90;;;;;;4816304;29;20720;-81
2023/10/12 05:31:48;;;;;;;13.53;5.57;;;17.40;99.90;;;;;;4822454;29;20552;-80
2023/10/12 05:42:39;;;;;;;17.20;5.83;;;17.30;99.90;;;;;;4836689;29;20194;-80
2023/10/12 05:45:44;;;;;;;12.43;5.27;;;17.60;99.90;;;;;;4788393;29;20242;-78
2023/10/12 05:49:12;;;;;;;15.13;5.60;;;17.60;99.90;;;;;;4746075;30;20606;-79
2023/10/12 05:52:07;;;;;;;19.00;5.93;;;17.60;99.90;;;;;;4731906;30;20258;-79
2023/10/12 05:54:59;;;;;;;15.90;4.93;;;17.90;99.90;;;;;;4749854;30;20237;-80
2023/10/12 05:58:11;;;;;;;11.07;5.53;;;17.60;99.90;;;;;;4751351;30;20215;-79
2023/10/12 06:01:31;;;;;;;14.37;5.80;;;17.70;99.90;;;;;;4761638;30;20208;-82
2023/10/12 06:04:57;;;;;;;11.43;5.47;;;17.70;99.90;;;;;;4782663;29;20214;-81
2023/10/12 06:08:26;;;;;;;12.80;5.57;;;17.60;99.90;;;;;;4753532;30;20209;-79
2023/10/12 06:12:24;;;;;;;13.70;5.63;;;17.70;99.90;;;;;;4762586;30;20678;-80
2023/10/12 06:15:40;;;;;;;;;;;;;;;;;;;;;
2023/10/12 06:19:09;;;;;;;10.23;5.30;;;17.80;99.90;;;;;;4692706;30;20215;-81
2023/10/12 06:26:08;;;;;;;10.67;5.37;;;17.90;99.90;;;;;;4697954;30;20237;-82
2023/10/12 06:29:08;;;;;;;13.53;5.27;;;17.80;99.90;;;;;;4703807;30;20668;-82
2023/10/12 06:44:28;;;;;;;11.50;4.73;;;18.10;99.90;;;;;;4908943;29;20298;-82
2023/10/12 06:47:48;;;;;;;8.33;5.00;;;17.90;99.90;;;;;;4913613;29;20195;-82
2023/10/12 06:53:53;;;;;;;13.67;4.63;;;18.30;99.90;;;;;;4888427;29;20360;-83
2023/10/12 06:56:29;;;;;;;13.07;5.00;;;18.40;99.90;;;;;;4877348;29;20197;-74
2023/10/12 06:59:08;;;;;;;16.07;5.57;;;18.70;99.90;;;;;;4877089;29;20280;-75
2023/10/12 07:04:36;;;;;;;10.60;4.90;;;18.50;99.90;;;;;;4877405;29;20667;-74
2023/10/12 07:07:10;;;;;;;16.23;5.17;;;18.50;99.90;;;;;;4877821;29;20220;-74
2023/10/12 07:09:42;;;;;;;14.83;5.07;;;18.60;99.90;;;;;;4877872;29;20492;-73
2023/10/12 07:12:13;;;;;;;12.67;4.77;;;18.60;99.90;;;;;;4877454;29;20652;-82
2023/10/12 07:14:46;;;;;;;10.60;4.93;;;18.70;99.90;;;;;;4878385;29;20221;-75
2023/10/12 07:17:15;;;;;;;13.50;5.17;;;18.70;99.90;;;;;;4877199;29;20562;-75
2023/10/12 07:19:53;;;;;;;13.37;4.70;;;18.70;99.90;;;;;;4877391;29;20248;-75
2023/10/12 07:22:23;;;;;;;9.23;4.47;;;18.70;99.90;;;;;;4891521;29;20248;-74
2023/10/12 07:24:54;;;;;;;12.47;4.93;;;18.70;99.90;;;;;;4877348;29;20201;-77
2023/10/12 07:27:26;;;;;;;13.60;5.37;;;18.70;99.90;;;;;;4878047;29;20277;-80
2023/10/12 07:30:30;;;;;;;12.93;5.00;;;18.70;99.90;;;;;;4877641;29;20209;-81
2023/10/12 07:33:07;;;;;;;11.87;4.90;;;18.80;99.90;;;;;;4891262;29;20212;-73
2023/10/12 07:35:42;;;;;;;11.80;5.20;;;18.80;99.90;;;;;;4876807;29;20223;-73
2023/10/12 07:38:28;;;;;;;15.40;5.03;;;18.80;99.90;;;;;;4876542;29;20253;-84
2023/10/12 07:41:00;;;;;;;15.13;5.43;;;18.90;99.90;;;;;;4891285;29;20192;-84
2023/10/12 07:43:32;;;;;;;13.07;5.07;;;18.80;99.90;;;;;;4877581;29;20197;-75
2023/10/12 07:46:26;;;;;;;12.20;4.87;;;18.80;99.90;;;;;;4876459;29;20201;-87
2023/10/12 07:49:21;;;;;;;10.70;4.63;;;18.90;99.90;;;;;;4878700;29;20269;-87
2023/10/12 07:57:47;;;;;;;14.03;5.27;;;18.90;99.90;;;;;;4876761;29;20229;-88
2023/10/12 08:00:34;;;;;;;14.47;4.97;;;18.80;99.90;;;;;;4877850;29;20208;-87
2023/10/12 08:03:16;;;;;;;16.27;5.07;;;18.90;99.90;;;;;;4892835;29;20196;-88
2023/10/12 08:05:56;;;;;;;12.13;4.80;;;18.90;99.90;;;;;;4895539;29;20299;-77
2023/10/12 08:08:35;;;;;;;12.83;5.23;;;18.90;99.90;;;;;;4891128;29;20227;-77
2023/10/12 08:19:43;;;;;;;11.53;5.00;;;18.60;99.90;;;;;;4894999;29;20727;-84
2023/10/12 09:13:26;;;;;;;15.37;4.83;;;19.90;99.90;;;;;;5414786;23;20240;-79
2023/10/12 09:16:09;;;;;;;15.83;4.90;;;20.10;99.90;;;;;;4902003;29;20207;-82
2023/10/12 09:27:26;;;;;;;15.73;4.80;;;20.30;99.90;;;;;;4784456;29;20196;-81
2023/10/12 09:31:48;;;;;;;12.03;4.63;;;20.30;99.90;;;;;;4849919;29;20628;-86
2023/10/12 09:42:30;;;;;;;12.03;4.50;;;20.90;99.90;;;;;;4900582;29;20239;-86
2023/10/12 09:46:31;;;;;;;10.07;4.00;;;20.60;99.90;;;;;;4890255;29;20212;-87
2023/10/12 09:49:21;;;;;;;13.50;4.70;;;20.90;99.90;;;;;;4840745;29;20744;-84
2023/10/12 10:04:44;;;;;;;9.83;4.60;;;20.10;99.90;;;;;;4702516;30;20214;-86
2023/10/12 10:08:18;;;;;;;12.67;4.17;;;20.10;99.90;;;;;;4736883;30;20309;-82
2023/10/12 10:14:07;;;;;;;15.83;4.67;;;19.60;99.90;;;;;;4652285;30;20267;-82
2023/10/12 10:20:57;;;;;;;10.90;4.63;;;18.90;99.90;;;;;;4664384;30;20216;-85
2023/10/12 10:23:48;;;;;;;12.07;4.97;;;18.80;99.90;;;;;;4658107;30;20330;-81
2023/10/12 10:26:30;;;;;;;12.57;4.40;;;18.50;99.90;;;;;;4666279;30;20257;-81
2023/10/12 10:29:17;;;;;;;11.83;4.33;;;18.30;99.90;;;;;;4651979;30;20224;-81
2023/10/12 10:31:51;;;;;;;9.20;4.43;;;18.00;99.90;;;;;;4683887;30;20576;-84
2023/10/12 10:34:23;;;;;;;15.23;5.30;;;17.90;99.90;;;;;;4734249;30;20255;-79
2023/10/12 10:36:57;;;;;;;14.83;5.07;;;17.80;99.90;;;;;;4786224;30;20227;-78
2023/10/12 10:39:29;;;;;;;8.57;4.60;;;17.70;99.90;;;;;;4786166;30;20196;-79
2023/10/12 10:42:09;;;;;;;13.43;5.40;;;17.50;99.90;;;;;;4771628;30;20398;-81
2023/10/12 10:44:41;;;;;;;17.77;5.23;;;17.20;99.90;;;;;;4786964;29;20238;-77
2023/10/12 10:47:15;;;;;;;9.97;5.60;;;17.10;99.90;;;;;;4796449;29;20230;-77
2023/10/12 10:50:00;;;;;;;10.63;5.30;;;17.10;99.90;;;;;;4796985;29;20253;-78
2023/10/12 10:52:36;;;;;;;16.60;5.60;;;17.00;99.90;;;;;;4858884;29;20311;-77
2023/10/12 12:06:42;;;;;;;6.20;2.90;;;16.50;99.90;;;;;;5168412;23;20238;-81
2023/10/12 12:09:17;;;;;;;10.03;2.93;;;16.60;99.90;;;;;;4935104;29;20664;-79
2023/10/12 12:12:07;;;;;;;7.00;3.40;;;16.60;99.90;;;;;;4933957;29;20205;-79
2023/10/12 12:14:49;;;;;;;6.37;3.23;;;16.50;99.90;;;;;;4933587;29;20214;-75
2023/10/12 12:17:21;;;;;;;10.53;4.00;;;16.40;99.90;;;;;;4934290;29;20215;-78
2023/10/12 12:19:58;;;;;;;8.53;3.50;;;16.40;99.90;;;;;;4933477;29;20233;-79
2023/10/12 12:22:39;;;;;;;7.20;3.20;;;16.50;99.90;;;;;;4933399;29;20234;-79
2023/10/12 12:25:20;;;;;;;6.13;3.10;;;16.60;99.90;;;;;;4902069;29;20306;-76
2023/10/12 12:27:59;;;;;;;8.23;3.43;;;16.60;99.90;;;;;;4933337;29;20194;-80
2023/10/12 12:30:35;;;;;;;9.60;3.30;;;16.40;99.90;;;;;;4918832;29;20657;-80
2023/10/12 12:33:15;;;;;;;14.73;4.20;;;16.60;99.90;;;;;;4933572;29;20301;-79
2023/10/12 12:35:59;;;;;;;6.90;3.17;;;16.60;99.90;;;;;;4933995;29;20222;-83
2023/10/12 12:41:18;;;;;;;6.67;3.40;;;16.60;99.90;;;;;;4934548;29;20214;-81
2023/10/12 12:43:52;;;;;;;9.30;3.50;;;16.50;99.90;;;;;;4921135;29;20217;-83
2023/10/12 12:46:23;;;;;;;9.70;3.90;;;16.60;99.90;;;;;;4921582;29;20195;-84
2023/10/12 12:48:53;;;;;;;8.67;3.80;;;16.60;99.90;;;;;;4937365;29;20661;-75
2023/10/12 12:51:22;;;;;;;7.40;4.07;;;16.60;99.90;;;;;;4936906;29;20553;-76
2023/10/12 12:54:02;;;;;;;9.73;4.40;;;16.60;99.90;;;;;;4936335;29;20204;-77
2023/10/12 12:56:38;;;;;;;11.77;4.17;;;16.60;99.90;;;;;;4934883;29;20234;-77
2023/10/12 12:59:06;;;;;;;13.00;4.10;;;16.70;99.90;;;;;;4919310;29;20213;-76
2023/10/12 13:01:35;;;;;;;11.27;3.90;;;16.60;99.90;;;;;;4935875;29;20194;-76
2023/10/12 13:04:10;;;;;;;9.93;3.90;;;16.70;99.90;;;;;;4937117;29;20651;-75
2023/10/12 13:06:38;;;;;;;10.23;4.43;;;16.60;99.90;;;;;;4936173;29;20692;-75
2023/10/12 13:09:28;;;;;;;9.00;4.13;;;16.60;99.90;;;;;;4936499;29;20194;-77
2023/10/12 13:11:57;;;;;;;12.20;4.40;;;16.50;99.90;;;;;;4919286;29;20190;-76
2023/10/12 13:14:28;;;;;;;13.90;5.20;;;16.70;99.90;;;;;;4936057;29;20555;-74
2023/10/12 13:17:08;;;;;;;11.27;4.30;;;16.60;99.90;;;;;;4936965;29;20242;-72
2023/10/12 13:19:37;;;;;;;12.03;4.30;;;16.70;99.90;;;;;;4935178;29;20202;-75
2023/10/12 13:22:06;;;;;;;10.73;4.67;;;16.70;99.90;;;;;;4937218;29;20238;-84
2023/10/12 13:24:47;;;;;;;15.13;4.90;;;16.70;99.90;;;;;;4936931;29;20210;-83
2023/10/12 13:27:21;;;;;;;9.17;4.60;;;16.60;99.90;;;;;;4936385;29;20580;-75
2023/10/12 13:29:49;;;;;;;12.63;4.70;;;16.60;99.90;;;;;;4935669;29;20210;-76
2023/10/12 13:32:18;;;;;;;11.73;4.50;;;16.60;99.90;;;;;;4935989;29;20554;-84
2023/10/12 13:34:46;;;;;;;13.47;4.67;;;16.70;99.90;;;;;;4937142;29;20376;-73
2023/10/12 13:37:13;;;;;;;11.30;4.70;;;16.70;99.90;;;;;;4936333;29;20223;-81
2023/10/12 13:39:43;;;;;;;10.67;4.87;;;16.60;99.90;;;;;;4936661;29;20285;-78
2023/10/12 13:42:12;;;;;;;14.80;5.17;;;16.60;99.90;;;;;;4920113;29;20281;-76
2023/10/12 13:44:42;;;;;;;13.03;4.80;;;16.60;99.90;;;;;;4936758;29;20200;-75
2023/10/12 13:47:12;;;;;;;9.03;4.70;;;16.60;99.90;;;;;;4935551;29;20554;-75
2023/10/12 13:49:43;;;;;;;9.27;4.90;;;16.70;99.90;;;;;;4935531;29;20199;-75
2023/10/12 13:52:17;;;;;;;9.53;4.50;;;16.70;99.90;;;;;;4935436;29;20306;-75
2023/10/12 13:54:47;;;;;;;9.40;4.90;;;16.80;99.90;;;;;;4935746;29;20211;-81
2023/10/12 13:57:32;;;;;;;9.83;4.60;;;16.60;99.90;;;;;;4936229;29;20274;-78
2023/10/12 14:00:09;;;;;;;8.70;4.50;;;16.70;99.90;;;;;;4935813;29;20284;-85
2023/10/12 14:02:42;;;;;;;9.90;5.13;;;16.70;99.90;;;;;;4920201;29;20198;-75
2023/10/12 14:05:10;;;;;;;11.77;5.10;;;16.70;99.90;;;;;;4919053;29;20350;-75
2023/10/12 14:07:41;;;;;;;14.83;5.67;;;16.60;99.90;;;;;;4935719;29;20306;-86
2023/10/12 14:10:14;;;;;;;13.23;5.20;;;16.60;99.90;;;;;;4936157;29;20291;-82
2023/10/12 14:12:53;;;;;;;13.70;5.57;;;16.70;99.90;;;;;;4936570;29;20202;-77
2023/10/12 14:15:27;;;;;;;10.87;5.20;;;16.80;99.90;;;;;;4936841;29;20221;-82
2023/10/12 14:17:54;;;;;;;13.03;5.80;;;16.60;99.90;;;;;;4939498;29;20206;-74
2023/10/12 14:20:26;;;;;;;9.37;5.23;;;16.60;99.90;;;;;;4936653;29;20286;-79
2023/10/12 14:23:11;;;;;;;10.53;4.73;;;16.60;99.90;;;;;;4936560;29;20273;-83
2023/10/12 14:25:50;;;;;;;10.30;4.83;;;16.60;99.90;;;;;;4919783;29;20611;-86
2023/10/12 14:28:21;;;;;;;10.10;4.97;;;16.70;99.90;;;;;;4934669;29;20216;-84
2023/10/12 14:30:50;;;;;;;12.20;4.93;;;16.60;99.90;;;;;;4936104;29;20673;-82
2023/10/12 14:33:19;;;;;;;11.27;5.00;;;16.70;99.90;;;;;;4935697;29;20678;-85
2023/10/12 14:35:47;;;;;;;9.43;4.27;;;16.70;99.90;;;;;;4935385;29;20312;-79
2023/10/12 14:38:30;;;;;;;13.50;5.47;;;16.60;99.90;;;;;;4935469;29;20218;-76
2023/10/12 14:41:09;;;;;;;9.23;4.70;;;16.50;99.90;;;;;;4933996;29;20183;-73
2023/10/12 14:43:37;;;;;;;11.17;4.73;;;16.60;99.90;;;;;;4934927;29;20741;-76
2023/10/12 14:46:10;;;;;;;11.00;4.90;;;16.60;99.90;;;;;;4934535;29;20214;-84
2023/10/12 14:48:43;;;;;;;12.77;4.90;;;16.50;99.90;;;;;;4919373;29;20199;-82
2023/10/12 14:51:14;;;;;;;9.97;5.00;;;16.50;99.90;;;;;;4919122;29;20217;-82
2023/10/12 14:53:46;;;;;;;12.70;4.90;;;16.50;99.90;;;;;;4935937;29;20199;-77
2023/10/12 14:56:24;;;;;;;9.47;4.87;;;16.40;99.90;;;;;;4935841;29;20225;-77
2023/10/12 14:58:55;;;;;;;9.60;4.70;;;16.40;99.90;;;;;;4935051;29;20245;-75
2023/10/12 15:01:30;;;;;;;12.63;5.07;;;16.50;99.90;;;;;;4935217;29;20604;-83
2023/10/12 15:03:58;;;;;;;12.87;5.83;;;16.40;99.90;;;;;;4935298;29;20195;-82
2023/10/12 15:06:31;;;;;;;9.27;5.00;;;16.40;99.90;;;;;;4934794;29;20225;-76
2023/10/12 15:09:12;;;;;;;11.57;5.00;;;16.50;99.90;;;;;;4920234;29;20198;-78
2023/10/12 15:11:42;;;;;;;9.47;5.03;;;16.40;99.90;;;;;;4919325;29;20187;-85
2023/10/12 15:14:28;;;;;;;11.97;5.20;;;16.50;99.90;;;;;;4934154;29;20349;-83
2023/10/12 15:16:57;;;;;;;8.80;4.90;;;16.50;99.90;;;;;;4935962;29;20225;-83
2023/10/12 15:19:27;;;;;;;7.97;4.10;;;16.30;99.90;;;;;;4935726;29;20265;-83
2023/10/12 15:22:06;;;;;;;8.50;4.10;;;16.10;99.90;;;;;;4934235;29;20218;-80
2023/10/12 15:24:52;;;;;;;7.50;4.13;;;16.00;99.90;;;;;;4934521;29;20203;-81
2023/10/12 15:27:30;;;;;;;8.33;3.83;;;16.00;99.90;;;;;;4918905;29;20333;-80
2023/10/12 15:30:10;;;;;;;7.63;3.97;;;16.00;99.90;;;;;;4919220;29;20264;-84
2023/10/12 15:32:47;;;;;;;7.40;3.70;;;15.90;99.90;;;;;;4935372;29;20268;-81
2023/10/12 15:35:23;;;;;;;8.63;3.70;;;15.80;99.90;;;;;;4933480;29;20586;-79
2023/10/12 15:38:02;;;;;;;7.53;3.40;;;15.60;99.90;;;;;;4918584;29;20240;-79
2023/10/12 15:40:32;;;;;;;5.33;3.00;;;15.50;99.90;;;;;;4917761;29;20542;-79
2023/10/12 15:43:19;;;;;;;7.47;3.13;;;15.50;99.90;;;;;;4935467;29;20595;-80
2023/10/12 15:45:53;;;;;;;6.03;2.80;;;15.60;99.90;;;;;;4919580;29;20179;-83
2023/10/12 15:48:26;;;;;;;6.87;3.03;;;15.70;99.90;;;;;;4919365;29;20646;-80
2023/10/12 15:50:55;;;;;;;6.37;3.23;;;15.70;99.90;;;;;;4919037;29;20218;-84
2023/10/12 15:53:24;;;;;;;5.80;3.03;;;15.80;99.90;;;;;;4917941;29;20194;-84
2023/10/12 15:55:52;;;;;;;6.90;2.93;;;15.70;99.90;;;;;;4902949;29;20226;-83
2023/10/12 15:58:20;;;;;;;8.03;3.20;;;15.50;99.90;;;;;;4933857;29;20194;-80
2023/10/12 16:00:48;;;;;;;4.57;3.07;;;15.60;99.90;;;;;;4934961;29;20190;-79
2023/10/12 16:03:20;;;;;;;6.10;2.57;;;15.60;99.90;;;;;;4933690;29;20209;-79
2023/10/12 16:05:49;;;;;;;6.03;2.70;;;15.60;99.90;;;;;;4933683;29;20210;-80
2023/10/12 16:08:21;;;;;;;7.20;2.80;;;15.50;99.90;;;;;;4934334;29;20243;-83
2023/10/12 16:10:50;;;;;;;5.97;2.90;;;15.50;99.90;;;;;;4918136;29;20210;-78
2023/10/12 16:13:24;;;;;;;5.40;2.60;;;15.40;99.90;;;;;;4918246;29;20377;-85
2023/10/12 16:15:56;;;;;;;6.33;3.27;;;15.10;99.90;;;;;;4917259;29;20218;-82
2023/10/12 16:18:24;;;;;;;7.50;3.00;;;15.10;99.90;;;;;;4903052;29;20207;-83
2023/10/12 16:21:10;;;;;;;10.70;3.83;;;14.90;99.90;;;;;;4934897;29;20211;-80
2023/10/12 16:23:38;;;;;;;8.10;3.37;;;14.70;99.90;;;;;;4918165;29;20193;-78
2023/10/12 16:26:11;;;;;;;5.97;3.43;;;14.70;99.90;;;;;;4918219;29;20209;-79
2023/10/12 16:28:46;;;;;;;8.50;3.77;;;14.80;99.90;;;;;;4934003;29;20649;-83
2023/10/12 16:31:17;;;;;;;7.00;3.60;;;14.90;99.90;;;;;;4933034;29;20214;-79
2023/10/12 16:33:45;;;;;;;6.90;3.70;;;15.00;99.90;;;;;;4934847;29;20194;-82
2023/10/12 16:36:25;;;;;;;8.93;4.00;;;14.80;99.90;;;;;;4932803;29;20281;-81
2023/10/12 16:38:57;;;;;;;8.13;3.40;;;14.90;99.90;;;;;;4931812;29;20186;-82
2023/10/12 16:41:37;;;;;;;5.60;3.37;;;14.90;99.90;;;;;;4917326;29;20202;-82
2023/10/12 16:44:28;;;;;;;7.37;3.50;;;14.80;99.90;;;;;;4856919;29;20727;-78
2023/10/12 16:47:02;;;;;;;8.37;3.23;;;14.70;99.90;;;;;;4855928;29;20220;-77
2023/10/12 16:49:33;;;;;;;11.77;3.60;;;14.80;99.90;;;;;;4856333;29;20250;-77
2023/10/12 16:52:02;;;;;;;5.33;2.80;;;14.80;99.90;;;;;;4855769;29;20249;-76
2023/10/12 16:54:40;;;;;;;7.00;3.07;;;14.80;99.90;;;;;;4855916;29;20210;-81
2023/10/12 16:57:23;;;;;;;7.33;2.93;;;14.80;99.90;;;;;;4856067;29;20673;-76
2023/10/12 17:00:00;;;;;;;5.90;2.90;;;14.70;99.90;;;;;;4858834;29;20209;-77
2023/10/12 17:02:54;;;;;;;7.20;3.23;;;14.60;99.90;;;;;;4783653;29;20240;-76
2023/10/12 17:05:32;;;;;;;5.17;3.00;;;14.70;99.90;;;;;;4783660;29;20230;-77
2023/10/12 17:08:13;;;;;;;7.07;2.73;;;14.80;99.90;;;;;;4787008;29;20247;-76
2023/10/12 17:10:45;;;;;;;6.13;2.97;;;14.80;99.90;;;;;;4842532;29;20202;-81
2023/10/12 17:13:18;;;;;;;6.07;3.13;;;14.60;99.90;;;;;;4841779;29;20210;-75
2023/10/12 17:15:50;;;;;;;5.93;2.90;;;14.60;99.90;;;;;;4855199;29;20315;-77
2023/10/12 17:18:18;;;;;;;5.27;2.67;;;14.60;99.90;;;;;;4854992;29;20212;-74
2023/10/12 17:20:46;;;;;;;6.13;2.50;;;14.60;99.90;;;;;;4854564;29;20308;-77
2023/10/12 17:23:15;;;;;;;5.60;2.80;;;14.50;99.90;;;;;;4855267;29;20570;-83
2023/10/12 17:25:47;;;;;;;6.37;3.23;;;14.60;99.90;;;;;;4854748;29;20318;-83
2023/10/12 17:28:14;;;;;;;7.23;2.97;;;14.60;99.90;;;;;;4857422;29;20470;-83
2023/10/12 17:30:46;;;;;;;5.60;2.50;;;14.60;99.90;;;;;;4859516;29;20257;-74
2023/10/12 17:33:14;;;;;;;6.83;2.70;;;14.60;99.90;;;;;;4858861;29;20262;-74
2023/10/12 17:35:44;;;;;;;4.50;2.60;;;14.50;99.90;;;;;;4859209;29;20325;-82
2023/10/12 17:38:14;;;;;;;11.57;3.17;;;14.50;99.90;;;;;;4858934;29;20240;-74
2023/10/12 17:41:20;;;;;;;5.80;2.70;;;14.40;99.90;;;;;;4919163;29;20206;-75
2023/10/12 17:43:54;;;;;;;7.10;3.00;;;14.40;99.90;;;;;;4937152;29;20198;-76
2023/10/12 17:46:22;;;;;;;7.20;2.83;;;14.40;99.90;;;;;;4936547;29;20265;-76
2023/10/12 17:48:53;;;;;;;9.80;3.30;;;14.40;99.90;;;;;;4936668;29;20183;-83
2023/10/12 17:51:22;;;;;;;5.80;2.80;;;14.30;99.90;;;;;;4937867;29;20245;-76
2023/10/12 17:53:50;;;;;;;5.57;3.00;;;14.20;99.90;;;;;;4936256;29;20211;-76
2023/10/12 17:56:18;;;;;;;10.60;3.20;;;14.20;99.90;;;;;;4936214;29;20222;-76
2023/10/12 17:58:45;;;;;;;5.50;3.07;;;14.20;99.90;;;;;;4936084;29;20258;-74
2023/10/12 18:01:13;;;;;;;7.30;3.60;;;14.10;99.90;;;;;;4935125;29;20282;-76
2023/10/12 18:03:44;;;;;;;7.67;3.73;;;14.00;99.90;;;;;;4936297;29;20195;-82
2023/10/12 18:06:12;;;;;;;7.10;3.43;;;14.00;99.90;;;;;;4935684;29;20278;-83
2023/10/12 18:08:41;;;;;;;6.10;3.67;;;14.00;99.90;;;;;;4936399;29;20245;-81
2023/10/12 18:11:15;;;;;;;7.27;4.10;;;13.90;99.90;;;;;;4936563;29;20202;-81
2023/10/12 18:13:46;;;;;;;8.80;4.20;;;13.90;99.90;;;;;;4936996;29;20213;-84
2023/10/12 18:16:14;;;;;;;9.73;4.00;;;13.90;99.90;;;;;;4936311;29;20778;-77
2023/10/12 18:18:43;;;;;;;12.03;4.43;;;13.80;99.90;;;;;;4935299;29;20705;-75
2023/10/12 18:21:10;;;;;;;7.43;4.20;;;13.80;99.90;;;;;;4935271;29;20222;-76
2023/10/12 18:23:39;;;;;;;8.63;4.37;;;13.60;99.90;;;;;;4934994;29;20282;-77
2023/10/12 18:26:10;;;;;;;7.87;4.80;;;13.60;99.90;;;;;;4935835;29;20214;-77
2023/10/12 18:28:38;;;;;;;12.67;4.77;;;13.50;99.90;;;;;;4936221;29;20199;-76
2023/10/12 18:31:09;;;;;;;10.93;4.73;;;13.40;99.90;;;;;;4933793;29;20689;-76
2023/10/12 18:33:38;;;;;;;11.83;5.30;;;13.40;99.90;;;;;;4935491;29;20213;-81
2023/10/12 18:36:10;;;;;;;9.43;4.63;;;13.30;99.90;;;;;;4935531;29;20663;-80
2023/10/12 18:38:42;;;;;;;8.50;4.80;;;13.30;99.90;;;;;;4934737;29;20294;-81
2023/10/12 18:41:15;;;;;;;9.57;4.57;;;13.30;99.90;;;;;;4935241;29;20198;-76
2023/10/12 18:43:51;;;;;;;10.53;4.57;;;13.20;99.90;;;;;;4935141;29;20186;-74
2023/10/12 18:46:23;;;;;;;9.30;4.70;;;13.20;99.90;;;;;;4933243;29;20654;-76
2023/10/12 18:48:52;;;;;;;11.20;5.50;;;13.20;99.90;;;;;;4933587;29;20646;-82
2023/10/12 18:51:23;;;;;;;12.83;5.20;;;13.10;99.90;;;;;;4935450;29;20314;-76
2023/10/12 18:53:54;;;;;;;12.87;5.40;;;13.10;99.90;;;;;;4935430;29;20179;-77
2023/10/12 18:56:22;;;;;;;13.73;4.97;;;13.20;99.90;;;;;;4936859;29;20670;-80
2023/10/12 18:58:50;;;;;;;10.60;4.63;;;13.20;99.90;;;;;;4934799;29;20550;-82
2023/10/12 19:01:18;;;;;;;8.87;5.03;;;12.90;99.90;;;;;;4935200;29;20195;-76
2023/10/12 19:03:47;;;;;;;12.70;5.13;;;12.70;99.90;;;;;;4934554;29;20247;-75
2023/10/12 19:06:15;;;;;;;8.87;4.57;;;12.90;99.90;;;;;;4933379;29;20215;-76
2023/10/12 19:08:44;;;;;;;14.67;5.17;;;12.90;99.90;;;;;;4934717;29;20214;-76
2023/10/12 19:11:12;;;;;;;10.07;5.50;;;12.80;99.90;;;;;;4934689;29;20670;-74
2023/10/12 19:13:42;;;;;;;8.87;4.60;;;13.00;99.90;;;;;;4934778;29;20191;-77
2023/10/12 19:16:11;;;;;;;10.40;5.07;;;12.80;99.90;;;;;;4917004;29;20230;-76
2023/10/12 19:18:40;;;;;;;11.53;5.57;;;12.70;99.90;;;;;;4934492;29;20651;-76
2023/10/12 19:21:07;;;;;;;12.97;6.00;;;12.60;99.90;;;;;;4935170;29;20221;-76
2023/10/12 19:23:44;;;;;;;14.90;6.37;;;12.50;99.90;;;;;;4933216;29;20199;-76
2023/10/12 19:26:14;;;;;;;11.97;6.20;;;12.50;99.90;;;;;;4934635;29;20202;-82
2023/10/12 19:28:44;;;;;;;13.20;7.30;;;12.50;99.90;;;;;;4918279;29;20187;-78
2023/10/12 19:31:17;;;;;;;13.60;7.30;;;12.50;99.90;;;;;;4918068;29;20207;-74
2023/10/12 19:33:46;;;;;;;15.47;8.07;;;12.40;99.90;;;;;;4934170;29;20210;-74
2023/10/12 19:36:15;;;;;;;14.93;7.83;;;12.30;99.90;;;;;;4932255;29;20596;-74
2023/10/12 19:38:42;;;;;;;13.63;7.43;;;12.50;99.90;;;;;;4933996;29;20191;-75
2023/10/12 19:41:10;;;;;;;14.47;7.70;;;12.40;99.90;;;;;;4933865;29;20206;-76